createdAt,value
2022-11-01T00:01:54.770Z,107.63
2022-11-01T00:04:23.070Z,110.00
2022-11-01T00:06:51.478Z,104.07
2022-11-01T00:09:19.846Z,107.63
2022-11-01T00:11:49.523Z,110.20
2022-11-01T00:14:19.360Z,105.13
2022-11-01T00:16:47.697Z,107.57
2022-11-01T00:19:16.044Z,104.47
2022-11-01T00:21:43.968Z,107.33
2022-11-01T00:24:12.292Z,106.00
2022-11-01T00:26:40.497Z,105.57
2022-11-01T00:29:09.925Z,104.63
2022-11-01T00:31:37.862Z,103.53
2022-11-01T00:34:06.930Z,108.50
2022-11-01T00:36:35.462Z,107.23
2022-11-01T00:39:04.353Z,105.97
2022-11-01T00:41:32.475Z,104.60
2022-11-01T00:44:00.577Z,107.47
2022-11-01T00:46:30.671Z,106.47
2022-11-01T00:48:58.639Z,106.60
2022-11-01T00:51:27.080Z,109.67
2022-11-01T00:53:54.983Z,110.10
2022-11-01T00:56:22.936Z,107.67
2022-11-01T00:58:50.881Z,106.07
2022-11-01T01:01:18.963Z,106.13
2022-11-01T01:03:48.372Z,109.43
2022-11-01T01:06:16.324Z,109.03
2022-11-01T01:08:44.456Z,108.57
2022-11-01T01:11:12.442Z,107.13
2022-11-01T01:13:40.481Z,109.30
2022-11-01T01:16:09.935Z,106.43
2022-11-01T01:18:38.670Z,106.77
2022-11-01T01:21:08.593Z,106.90
2022-11-01T01:23:36.959Z,104.97
2022-11-01T01:26:07.480Z,105.17
2022-11-01T01:28:40.117Z,100.10
2022-11-01T01:31:12.812Z,99.77
2022-11-01T01:33:40.809Z,100.10
2022-11-01T01:36:10.522Z,99.47
2022-11-01T01:38:38.526Z,96.07
2022-11-01T01:41:24.177Z,96.20
2022-11-01T01:43:52.392Z,97.90
2022-11-01T01:46:20.446Z,96.97
2022-11-01T01:48:54.540Z,95.23
2022-11-01T01:51:28.808Z,93.23
2022-11-01T01:53:58.449Z,95.60
2022-11-01T01:56:32.684Z,90.97
2022-11-01T01:59:05.277Z,92.40
2022-11-01T02:01:35.332Z,91.30
2022-11-01T02:04:04.724Z,92.53
2022-11-01T02:06:36.652Z,93.07
2022-11-01T02:09:07.866Z,92.30
2022-11-01T02:11:36.375Z,91.20
2022-11-01T02:14:04.919Z,92.07
2022-11-01T02:16:48.345Z,88.40
2022-11-01T02:20:04.555Z,92.17
2022-11-01T02:22:52.096Z,89.93
2022-11-01T02:25:36.793Z,87.47
2022-11-01T02:28:23.459Z,85.00
2022-11-01T02:31:04.690Z,84.40
2022-11-01T02:33:40.457Z,81.53
2022-11-01T02:36:15.997Z,78.30
2022-11-01T02:38:50.086Z,78.93
2022-11-01T02:41:23.302Z,76.30
2022-11-01T02:43:56.071Z,77.23
2022-11-01T02:46:43.361Z,76.07
2022-11-01T02:49:16.887Z,78.30
2022-11-01T02:51:46.405Z,77.10
2022-11-01T02:54:21.876Z,75.43
2022-11-01T02:56:50.475Z,76.53
2022-11-01T02:59:25.049Z,75.40
2022-11-01T03:02:00.301Z,77.27
2022-11-01T03:04:29.735Z,79.87
2022-11-01T03:07:01.694Z,75.60
2022-11-01T03:09:30.394Z,78.57
2022-11-01T03:12:03.318Z,78.60
2022-11-01T03:14:39.723Z,77.87
2022-11-01T03:17:12.533Z,79.50
2022-11-01T03:19:48.975Z,87.37
2022-11-01T03:22:21.339Z,89.87
2022-11-01T03:24:53.322Z,88.67
2022-11-01T03:27:27.787Z,92.10
2022-11-01T03:30:03.070Z,90.67
2022-11-01T03:32:37.513Z,90.63
2022-11-01T03:35:11.555Z,92.27
2022-11-01T03:37:42.209Z,85.97
2022-11-01T03:40:14.163Z,91.27
2022-11-01T03:42:44.877Z,90.97
2022-11-01T03:45:15.809Z,92.93
2022-11-01T03:47:44.200Z,89.50
2022-11-01T03:50:17.632Z,94.13
2022-11-01T03:52:45.940Z,96.03
2022-11-01T03:55:20.581Z,95.07
2022-11-01T03:57:50.033Z,91.50
2022-11-01T04:00:20.394Z,89.20
2022-11-01T04:02:48.495Z,94.67
2022-11-01T04:05:18.527Z,95.00
2022-11-01T04:07:46.721Z,97.03
2022-11-01T04:10:15.659Z,115.47
2022-11-01T04:12:46.936Z,98.83
2022-11-01T04:15:32.932Z,97.80
2022-11-01T04:18:23.444Z,98.10
2022-11-01T04:20:54.173Z,95.17
2022-11-01T04:23:22.264Z,97.83
2022-11-01T04:25:50.423Z,93.60
2022-11-01T04:28:18.400Z,96.47
2022-11-01T04:30:46.373Z,101.27
2022-11-01T04:33:14.380Z,99.80
2022-11-01T04:35:42.497Z,100.73
2022-11-01T04:38:13.025Z,110.47
2022-11-01T04:40:41.652Z,103.13
2022-11-01T04:43:09.703Z,107.03
2022-11-01T04:45:37.643Z,109.20
2022-11-01T04:48:07.322Z,105.23
2022-11-01T04:50:36.497Z,111.93
2022-11-01T04:53:04.805Z,111.10
2022-11-01T04:55:34.853Z,107.90
2022-11-01T04:58:03.234Z,110.03
2022-11-01T05:00:33.123Z,108.10
2022-11-01T05:03:03.867Z,110.77
2022-11-01T05:05:32.424Z,110.90
2022-11-01T05:10:37.573Z,113.07
2022-11-01T05:13:06.492Z,109.70
2022-11-01T05:15:40.087Z,109.77
2022-11-01T05:18:11.869Z,113.17
2022-11-01T05:20:39.836Z,111.53
2022-11-01T05:23:07.883Z,109.57
2022-11-01T05:25:38.368Z,125.77
2022-11-01T05:28:08.792Z,106.60
2022-11-01T05:30:38.259Z,105.83
2022-11-01T05:33:07.686Z,125.13
2022-11-01T05:35:37.166Z,111.83
2022-11-01T05:38:06.134Z,112.33
2022-11-01T05:40:34.250Z,112.60
2022-11-01T05:43:04.186Z,111.20
2022-11-01T05:45:32.620Z,110.10
2022-11-01T05:48:03.589Z,107.47
2022-11-01T05:50:31.976Z,109.70
2022-11-01T05:53:08.492Z,108.63
2022-11-01T05:55:37.159Z,108.50
2022-11-01T05:58:07.401Z,104.03
2022-11-01T06:00:35.979Z,103.37
2022-11-01T06:03:04.765Z,109.80
2022-11-01T06:05:33.835Z,99.00
2022-11-01T06:08:03.117Z,96.70
2022-11-01T06:10:31.324Z,96.00
2022-11-01T06:12:59.604Z,106.40
2022-11-01T06:15:29.321Z,98.73
2022-11-01T06:17:58.436Z,96.43
2022-11-01T06:20:26.974Z,96.80
2022-11-01T06:22:55.111Z,104.47
2022-11-01T06:25:23.853Z,102.07
2022-11-01T06:27:51.767Z,117.03
2022-11-01T06:30:19.908Z,111.97
2022-11-01T06:32:49.269Z,105.73
2022-11-01T06:35:17.562Z,110.70
2022-11-01T06:37:46.813Z,107.27
2022-11-01T06:40:14.793Z,106.33
2022-11-01T06:42:46.569Z,107.87
2022-11-01T06:45:15.034Z,101.30
2022-11-01T06:47:49.047Z,99.77
2022-11-01T06:50:17.097Z,88.00
2022-11-01T06:52:45.026Z,82.83
2022-11-01T06:55:12.984Z,87.50
2022-11-01T06:57:41.084Z,77.30
2022-11-01T07:00:10.317Z,78.97
2022-11-01T07:02:38.332Z,73.07
2022-11-01T07:05:08.865Z,81.13
2022-11-01T07:07:36.939Z,79.53
2022-11-01T07:10:05.513Z,82.50
2022-11-01T07:12:33.439Z,89.73
2022-11-01T07:15:01.450Z,109.23
2022-11-01T07:17:29.419Z,100.27
2022-11-01T07:19:57.501Z,80.97
2022-11-01T07:22:26.833Z,105.33
2022-11-01T07:24:54.809Z,83.93
2022-11-01T07:27:22.851Z,85.30
2022-11-01T07:29:50.767Z,86.40
2022-11-01T07:32:18.728Z,88.93
2022-11-01T07:34:46.635Z,87.37
2022-11-01T07:37:14.658Z,89.23
2022-11-01T07:39:44.022Z,81.43
2022-11-01T07:42:12.069Z,78.97
2022-11-01T07:44:39.999Z,77.07
2022-11-01T07:47:08.027Z,76.83
2022-11-01T07:49:35.997Z,80.80
2022-11-01T07:52:04.291Z,84.53
2022-11-01T07:54:32.218Z,79.57
2022-11-01T07:57:01.548Z,83.73
2022-11-01T07:59:29.621Z,81.37
2022-11-01T08:01:57.606Z,82.73
2022-11-01T08:04:25.588Z,82.67
2022-11-01T08:06:53.579Z,78.63
2022-11-01T08:09:23.049Z,93.00
2022-11-01T08:11:51.547Z,77.77
2022-11-01T08:14:20.856Z,76.87
2022-11-01T08:16:50.220Z,78.43
2022-11-01T08:19:18.186Z,75.47
2022-11-01T08:21:46.136Z,79.63
2022-11-01T08:24:14.150Z,76.17
2022-11-01T08:26:42.104Z,80.40
2022-11-01T08:29:10.105Z,88.67
2022-11-01T08:31:42.168Z,86.50
2022-11-01T08:34:14.552Z,88.53
2022-11-01T08:36:44.701Z,91.27
2022-11-01T08:39:13.023Z,90.17
2022-11-01T08:41:40.935Z,91.40
2022-11-01T08:44:09.551Z,92.30
2022-11-01T08:46:37.586Z,91.90
2022-11-01T08:49:06.896Z,93.13
2022-11-01T08:51:35.110Z,91.70
2022-11-01T08:54:05.159Z,92.50
2022-11-01T08:56:33.254Z,90.27
2022-11-01T08:59:01.351Z,86.77
2022-11-01T09:01:29.455Z,82.93
2022-11-01T09:03:58.473Z,81.63
2022-11-01T09:06:33.678Z,79.10
2022-11-01T09:09:04.337Z,79.87
2022-11-01T09:11:32.328Z,79.97
2022-11-01T09:14:01.315Z,80.07
2022-11-01T09:16:29.478Z,79.17
2022-11-01T09:19:01.615Z,75.67
2022-11-01T09:21:32.203Z,73.13
2022-11-01T09:24:00.447Z,68.67
2022-11-01T09:26:28.510Z,67.00
2022-11-01T09:28:58.583Z,65.43
2022-11-01T09:31:28.612Z,62.87
2022-11-01T09:33:57.515Z,60.73
2022-11-01T09:36:26.615Z,57.73
2022-11-01T09:38:56.318Z,56.73
2022-11-01T09:41:32.876Z,55.07
2022-11-01T09:44:04.321Z,54.60
2022-11-01T09:46:37.497Z,54.03
2022-11-01T09:49:07.213Z,50.00
2022-11-01T09:51:35.337Z,51.40
2022-11-01T09:54:04.770Z,47.93
2022-11-01T09:56:41.691Z,46.30
2022-11-01T09:59:22.223Z,44.27
2022-11-01T10:02:05.827Z,44.10
2022-11-01T10:04:59.375Z,44.53
2022-11-01T10:07:37.910Z,41.80
2022-11-01T10:10:18.931Z,42.23
2022-11-01T10:12:59.375Z,40.67
2022-11-01T10:15:39.597Z,38.40
2022-11-01T10:18:20.806Z,37.37
2022-11-01T10:20:49.556Z,37.27
2022-11-01T10:23:19.956Z,34.33
2022-11-01T10:25:54.804Z,34.30
2022-11-01T10:28:31.470Z,32.90
2022-11-01T10:31:04.472Z,32.90
2022-11-01T10:33:36.234Z,29.70
2022-11-01T10:36:07.402Z,29.27
2022-11-01T10:41:36.894Z,30.20
2022-11-01T10:44:12.187Z,29.55
2022-11-01T10:46:43.708Z,30.67
2022-11-01T10:49:24.402Z,29.23
2022-11-01T10:51:56.416Z,29.27
2022-11-01T10:54:29.563Z,30.30
2022-11-01T10:57:03.828Z,30.03
2022-11-01T10:59:36.650Z,29.97
2022-11-01T11:02:14.438Z,30.75
2022-11-01T11:04:43.068Z,28.67
2022-11-01T11:07:16.487Z,28.33
2022-11-01T11:09:50.245Z,27.55
2022-11-01T11:12:22.451Z,28.83
2022-11-01T11:14:54.519Z,27.27
2022-11-01T11:17:26.075Z,28.00
2022-11-01T11:19:54.333Z,27.35
2022-11-01T11:22:23.436Z,29.92
2022-11-01T11:24:52.870Z,27.58
2022-11-01T11:27:25.076Z,28.65
2022-11-01T11:29:56.493Z,28.50
2022-11-01T11:32:27.005Z,27.75
2022-11-01T11:34:58.414Z,28.07
2022-11-01T11:37:30.144Z,26.58
2022-11-01T11:40:20.852Z,27.08
2022-11-01T11:42:51.957Z,26.08
2022-11-01T11:45:29.526Z,25.40
2022-11-01T11:47:58.740Z,25.40
2022-11-01T11:50:33.488Z,22.08
2022-11-01T11:53:10.069Z,20.88
2022-11-01T11:55:43.747Z,19.13
2022-11-01T11:58:24.355Z,17.83
2022-11-01T12:00:59.891Z,17.38
2022-11-01T12:03:29.118Z,18.02
2022-11-01T12:06:06.762Z,18.02
2022-11-01T12:08:44.981Z,17.58
2022-11-01T12:11:13.573Z,17.45
2022-11-01T12:13:45.286Z,16.50
2022-11-01T12:16:22.359Z,17.15
2022-11-01T12:18:53.385Z,17.25
2022-11-01T12:21:27.876Z,17.38
2022-11-01T12:24:00.796Z,17.63
2022-11-01T12:26:31.852Z,18.38
2022-11-01T12:29:07.797Z,17.52
2022-11-01T12:31:37.012Z,16.85
2022-11-01T12:34:12.867Z,16.65
2022-11-01T12:36:46.307Z,18.15
2022-11-01T12:39:30.391Z,18.02
2022-11-01T12:41:59.480Z,17.35
2022-11-01T12:44:35.899Z,16.75
2022-11-01T12:47:09.247Z,17.60
2022-11-01T12:49:45.523Z,18.30
2022-11-01T12:52:20.259Z,18.13
2022-11-01T12:55:04.288Z,18.80
2022-11-01T12:57:33.301Z,18.35
2022-11-01T13:00:04.413Z,18.55
2022-11-01T13:03:07.810Z,18.23
2022-11-01T13:05:48.839Z,17.20
2022-11-01T13:08:24.331Z,17.52
2022-11-01T13:10:52.914Z,17.15
2022-11-01T13:13:26.943Z,15.50
2022-11-01T13:16:04.358Z,15.48
2022-11-01T13:18:45.043Z,16.00
2022-11-01T13:21:19.912Z,15.82
2022-11-01T13:23:53.984Z,15.15
2022-11-01T13:26:26.718Z,15.20
2022-11-01T13:29:04.086Z,15.38
2022-11-01T13:31:44.889Z,15.80
2022-11-01T13:34:27.428Z,15.23
2022-11-01T13:37:01.771Z,15.43
2022-11-01T13:39:38.425Z,13.40
2022-11-01T13:42:12.626Z,13.50
2022-11-01T13:44:45.178Z,14.82
2022-11-01T13:47:47.202Z,13.65
2022-11-01T13:50:41.246Z,10.18
2022-11-01T13:53:17.394Z,8.60
2022-11-01T13:55:50.881Z,7.57
2022-11-01T13:58:20.188Z,7.60
2022-11-01T14:00:50.532Z,7.65
2022-11-01T14:03:24.351Z,7.43
2022-11-01T14:09:37.600Z,8.10
2022-11-01T14:12:28.720Z,7.93
2022-11-01T14:15:11.762Z,7.82
2022-11-01T14:18:07.455Z,8.07
2022-11-01T14:20:51.649Z,7.93
2022-11-01T14:24:00.544Z,8.30
2022-11-01T14:26:50.809Z,8.52
2022-11-01T14:29:19.243Z,8.35
2022-11-01T14:31:49.640Z,8.73
2022-11-01T14:34:31.885Z,8.60
2022-11-01T14:37:11.516Z,8.35
2022-11-01T14:39:44.703Z,8.90
2022-11-01T14:42:19.809Z,9.07
2022-11-01T14:44:52.686Z,8.73
2022-11-01T14:47:31.874Z,9.15
2022-11-01T14:50:04.000Z,9.70
2022-11-01T14:52:40.848Z,9.20
2022-11-01T14:55:18.361Z,10.20
2022-11-01T14:57:48.511Z,9.95
2022-11-01T15:00:23.097Z,10.10
2022-11-01T15:02:51.881Z,10.75
2022-11-01T15:05:19.965Z,10.93
2022-11-01T15:07:54.117Z,10.98
2022-11-01T15:10:23.046Z,11.23
2022-11-01T15:12:54.159Z,11.90
2022-11-01T15:15:24.422Z,11.20
2022-11-01T15:17:55.631Z,12.03
2022-11-01T15:20:27.500Z,12.10
2022-11-01T15:22:58.568Z,12.27
2022-11-01T15:25:27.973Z,12.40
2022-11-01T15:27:58.170Z,12.93
2022-11-01T15:30:28.516Z,13.13
2022-11-01T15:33:15.230Z,13.30
2022-11-01T15:35:43.829Z,14.63
2022-11-01T15:38:20.842Z,14.00
2022-11-01T15:40:50.457Z,13.27
2022-11-01T15:43:21.086Z,14.20
2022-11-01T15:45:53.702Z,14.90
2022-11-01T15:48:24.678Z,14.90
2022-11-01T15:50:56.805Z,15.43
2022-11-01T15:53:29.299Z,16.33
2022-11-01T15:56:02.634Z,15.63
2022-11-01T15:58:35.109Z,16.30
2022-11-01T16:01:10.458Z,17.30
2022-11-01T16:03:43.056Z,16.60
2022-11-01T16:06:15.786Z,17.33
2022-11-01T16:08:52.426Z,18.60
2022-11-01T16:11:23.494Z,18.20
2022-11-01T16:13:57.236Z,18.40
2022-11-01T16:16:25.385Z,18.10
2022-11-01T16:18:54.957Z,19.20
2022-11-01T16:21:29.669Z,18.97
2022-11-01T16:24:11.522Z,19.63
2022-11-01T16:26:53.840Z,18.60
2022-11-01T16:29:41.275Z,19.83
2022-11-01T16:32:19.301Z,21.23
2022-11-01T16:34:47.879Z,21.17
2022-11-01T16:37:23.798Z,22.50
2022-11-01T16:39:53.813Z,22.40
2022-11-01T16:42:23.072Z,22.20
2022-11-01T16:44:56.076Z,22.63
2022-11-01T16:47:24.615Z,23.10
2022-11-01T16:49:55.105Z,24.30
2022-11-01T16:52:23.349Z,24.80
2022-11-01T16:54:52.083Z,24.73
2022-11-01T16:57:26.177Z,25.43
2022-11-01T16:59:55.592Z,25.47
2022-11-01T17:02:26.778Z,27.57
2022-11-01T17:04:58.586Z,26.67
2022-11-01T17:07:27.681Z,26.17
2022-11-01T17:09:57.961Z,27.30
2022-11-01T17:12:27.443Z,27.63
2022-11-01T17:14:56.121Z,27.40
2022-11-01T17:17:27.447Z,28.67
2022-11-01T17:19:59.669Z,29.77
2022-11-01T17:22:35.243Z,29.60
2022-11-01T17:25:04.314Z,31.67
2022-11-01T17:27:33.882Z,32.00
2022-11-01T17:30:03.338Z,32.33
2022-11-01T17:32:31.360Z,33.83
2022-11-01T17:35:00.282Z,32.97
2022-11-01T17:37:32.252Z,33.17
2022-11-01T17:40:01.955Z,32.83
2022-11-01T17:42:29.991Z,33.77
2022-11-01T17:44:59.545Z,33.80
2022-11-01T17:47:27.497Z,33.90
2022-11-01T17:49:55.557Z,34.07
2022-11-01T17:52:23.632Z,35.83
2022-11-01T17:54:51.697Z,34.63
2022-11-01T17:57:19.715Z,35.90
2022-11-01T17:59:47.694Z,36.83
2022-11-01T18:02:17.188Z,35.33
2022-11-01T18:04:45.626Z,37.00
2022-11-01T18:07:13.813Z,37.60
2022-11-01T18:09:41.844Z,38.53
2022-11-01T18:12:15.257Z,38.13
2022-11-01T18:17:38.875Z,40.90
2022-11-01T18:20:16.342Z,40.50
2022-11-01T18:22:50.478Z,40.87
2022-11-01T18:25:28.262Z,42.20
2022-11-01T18:28:00.250Z,41.70
2022-11-01T18:30:29.280Z,43.40
2022-11-01T18:33:04.097Z,43.97
2022-11-01T18:35:37.572Z,44.43
2022-11-01T18:38:25.961Z,44.97
2022-11-01T18:41:00.336Z,47.73
2022-11-01T18:43:32.025Z,47.97
2022-11-01T18:48:49.809Z,48.30
2022-11-01T18:51:23.005Z,48.97
2022-11-01T18:53:55.926Z,49.43
2022-11-01T18:56:25.730Z,49.47
2022-11-01T18:58:55.384Z,49.23
2022-11-01T19:01:31.934Z,49.60
2022-11-01T19:04:07.595Z,50.43
2022-11-01T19:06:35.748Z,51.47
2022-11-01T19:09:24.211Z,50.40
2022-11-01T19:11:58.364Z,53.03
2022-11-01T19:14:27.399Z,54.47
2022-11-01T19:16:56.497Z,54.97
2022-11-01T19:19:26.038Z,57.37
2022-11-01T19:21:59.600Z,57.10
2022-11-01T19:24:33.422Z,57.80
2022-11-01T19:27:03.084Z,55.87
2022-11-01T19:29:35.057Z,57.77
2022-11-01T19:32:05.547Z,57.40
2022-11-01T19:34:38.721Z,56.67
2022-11-01T19:37:20.956Z,58.30
2022-11-01T19:39:49.597Z,58.47
2022-11-01T19:42:26.304Z,58.67
2022-11-01T19:44:58.204Z,60.07
2022-11-01T19:47:40.361Z,58.93
2022-11-01T19:50:28.812Z,60.20
2022-11-01T19:52:59.020Z,60.30
2022-11-01T19:55:38.334Z,59.33
2022-11-01T19:58:26.321Z,59.60
2022-11-01T20:01:04.450Z,59.57
2022-11-01T20:03:39.479Z,60.03
2022-11-01T20:06:16.093Z,60.80
2022-11-01T20:08:45.388Z,60.07
2022-11-01T20:11:13.607Z,59.43
2022-11-01T20:13:41.808Z,60.10
2022-11-01T20:16:09.942Z,60.17
2022-11-01T20:18:37.969Z,60.70
2022-11-01T20:21:06.396Z,61.90
2022-11-01T20:23:36.355Z,59.90
2022-11-01T20:26:04.955Z,61.03
2022-11-01T20:28:33.605Z,61.83
2022-11-01T20:31:01.598Z,62.37
2022-11-01T20:33:29.679Z,61.73
2022-11-01T20:35:57.734Z,61.43
2022-11-01T20:38:25.790Z,61.50
2022-11-01T20:40:55.200Z,61.60
2022-11-01T20:43:24.040Z,63.70
2022-11-01T20:45:52.132Z,63.73
2022-11-01T20:48:20.516Z,64.03
2022-11-01T20:50:48.609Z,63.43
2022-11-01T20:53:16.916Z,62.13
2022-11-01T20:55:45.303Z,63.17
2022-11-01T20:58:15.130Z,63.07
2022-11-01T21:00:43.171Z,62.70
2022-11-01T21:03:15.639Z,64.10
2022-11-01T21:05:44.764Z,64.03
2022-11-01T21:08:22.428Z,62.80
2022-11-01T21:10:56.432Z,63.00
2022-11-01T21:13:28.329Z,63.47
2022-11-01T21:15:58.023Z,64.27
2022-11-01T21:18:33.828Z,63.53
2022-11-01T21:21:31.643Z,64.23
2022-11-01T21:24:01.291Z,63.47
2022-11-01T21:26:32.652Z,62.87
2022-11-01T21:29:16.598Z,63.43
2022-11-01T21:31:44.580Z,61.23
2022-11-01T21:34:24.272Z,62.30
2022-11-01T21:36:52.628Z,62.67
2022-11-01T21:39:22.697Z,63.00
2022-11-01T21:41:52.633Z,61.60
2022-11-01T21:44:25.965Z,64.13
2022-11-01T21:46:56.164Z,63.60
2022-11-01T21:49:27.669Z,64.97
2022-11-01T21:51:58.850Z,67.37
2022-11-01T21:54:34.043Z,66.03
2022-11-01T21:57:02.928Z,68.07
2022-11-01T21:59:32.843Z,68.90
2022-11-01T22:02:02.066Z,70.13
2022-11-01T22:04:31.586Z,69.83
2022-11-01T22:07:00.736Z,69.97
2022-11-01T22:09:29.161Z,72.83
2022-11-01T22:11:57.538Z,74.03
2022-11-01T22:14:25.940Z,72.47
2022-11-01T22:16:55.449Z,73.40
2022-11-01T22:19:23.535Z,73.17
2022-11-01T22:21:51.559Z,75.40
2022-11-01T22:24:19.671Z,74.80
2022-11-01T22:26:47.608Z,75.00
2022-11-01T22:29:15.647Z,75.80
2022-11-01T22:31:43.815Z,75.23
2022-11-01T22:34:13.514Z,77.17
2022-11-01T22:36:43.264Z,74.20
2022-11-01T22:39:18.143Z,74.13
2022-11-01T22:41:46.247Z,74.20
2022-11-01T22:44:16.055Z,72.57
2022-11-01T22:46:47.312Z,70.70
2022-11-01T22:49:23.609Z,70.67
2022-11-01T22:51:54.434Z,69.97
2022-11-01T22:54:30.799Z,68.20
2022-11-01T22:57:02.848Z,67.40
2022-11-01T22:59:34.152Z,65.67
2022-11-01T23:02:24.879Z,66.67
2022-11-01T23:04:59.221Z,65.03
2022-11-01T23:07:39.015Z,65.90
2022-11-01T23:10:21.855Z,62.60
2022-11-01T23:13:09.633Z,64.80
2022-11-01T23:15:37.732Z,65.10
2022-11-01T23:18:14.875Z,64.53
2022-11-01T23:20:44.994Z,64.13
2022-11-01T23:23:18.199Z,63.83
2022-11-01T23:25:46.485Z,62.17
2022-11-01T23:28:14.895Z,60.73
2022-11-01T23:30:44.019Z,59.47
2022-11-01T23:33:13.754Z,60.83
2022-11-01T23:35:42.462Z,59.80
2022-11-01T23:38:19.948Z,58.23
2022-11-01T23:40:48.164Z,60.27
2022-11-01T23:43:25.417Z,60.70
2022-11-01T23:45:53.945Z,58.77
2022-11-01T23:48:23.829Z,58.27
2022-11-01T23:50:54.324Z,58.67
2022-11-01T23:53:30.712Z,59.63
2022-11-01T23:56:00.320Z,59.67
2022-11-01T23:58:31.389Z,58.33
